Time;durP1;ratioP1;P1;durP2;ratioP2;P2;SDS_P1;SDS_P2;PMS_P1;PMS_P2;Temp;Humidity;BMP_temperature;BMP_pressure;BME280_temperature;BME280_humidity;BME280_pressure;Samples;Min_cycle;Max_cycle;Signal;HPM_P1;HPM_P2
2021/12/11 00:01:39;;;;;;;60.53;27.00;;;3.10;99.90;;;;;;5000404;28;20293;-77
2021/12/11 00:04:34;;;;;;;61.00;28.63;;;3.10;99.90;;;;;;4985147;28;20175;-77
2021/12/11 00:07:04;;;;;;;63.67;27.50;;;3.10;99.90;;;;;;4986668;28;20271;-78
2021/12/11 00:09:45;;;;;;;59.57;27.23;;;3.20;99.90;;;;;;4969689;28;20202;-79
2021/12/11 00:12:20;;;;;;;57.63;28.50;;;3.00;99.90;;;;;;4979021;28;20191;-78
2021/12/11 00:14:52;;;;;;;55.03;27.03;;;3.00;99.90;;;;;;4965759;28;20233;-78
2021/12/11 00:17:21;;;;;;;61.57;28.27;;;3.00;99.90;;;;;;4970517;28;20210;-78
2021/12/11 00:19:47;;;;;;;59.83;25.87;;;2.90;99.90;;;;;;4984688;28;20210;-78
2021/12/11 00:22:18;;;;;;;55.77;27.30;;;2.90;99.90;;;;;;4985504;28;20186;-78
2021/12/11 00:24:44;;;;;;;61.00;28.03;;;3.00;99.90;;;;;;5002196;28;20207;-78
2021/12/11 00:27:15;;;;;;;58.20;26.90;;;3.10;99.90;;;;;;4979245;28;20203;-77
2021/12/11 00:29:41;;;;;;;59.97;27.37;;;3.10;99.90;;;;;;4961220;28;20183;-78
2021/12/11 00:32:09;;;;;;;56.23;27.07;;;3.20;99.90;;;;;;4977313;28;20179;-77
2021/12/11 00:34:39;;;;;;;57.33;26.67;;;3.20;99.90;;;;;;4981114;28;20191;-78
2021/12/11 00:37:07;;;;;;;56.83;27.20;;;3.30;99.90;;;;;;4991288;28;20256;-76
2021/12/11 00:40:22;;;;;;;58.23;26.87;;;3.10;99.90;;;;;;4973711;28;20203;-78
2021/12/11 00:42:56;;;;;;;53.73;26.40;;;3.10;99.90;;;;;;4890409;29;20579;-78
2021/12/11 00:45:28;;;;;;;55.93;27.03;;;3.10;99.90;;;;;;4965620;28;20188;-77
2021/12/11 00:47:57;;;;;;;61.03;26.47;;;3.10;99.90;;;;;;4971260;28;20199;-77
2021/12/11 00:50:34;;;;;;;60.87;27.37;;;3.10;99.90;;;;;;4969509;28;20274;-77
2021/12/11 00:53:13;;;;;;;60.10;27.60;;;3.10;99.90;;;;;;4971566;28;20164;-77
2021/12/11 00:55:43;;;;;;;57.63;26.93;;;3.10;99.90;;;;;;4974282;28;20171;-77
2021/12/11 00:58:12;;;;;;;62.10;28.13;;;3.10;99.90;;;;;;4958377;28;20207;-77
2021/12/11 01:00:52;;;;;;;61.53;27.97;;;3.10;99.90;;;;;;4989942;28;20187;-79
2021/12/11 01:04:11;;;;;;;58.17;26.77;;;3.10;99.90;;;;;;4968956;28;20175;-77
2021/12/11 01:06:51;;;;;;;58.30;26.87;;;3.10;99.90;;;;;;4970816;28;20214;-78
2021/12/11 01:09:17;;;;;;;57.13;26.40;;;3.30;99.90;;;;;;4964432;28;20183;-76
2021/12/11 01:11:52;;;;;;;57.57;26.63;;;3.30;99.90;;;;;;4955258;28;20190;-78
2021/12/11 01:14:34;;;;;;;55.27;27.87;;;3.30;99.90;;;;;;4966149;28;20180;-80
2021/12/11 01:17:12;;;;;;;62.13;28.50;;;3.20;99.90;;;;;;4960028;28;20236;-77
2021/12/11 01:19:44;;;;;;;59.47;26.67;;;3.20;99.90;;;;;;4978570;28;20207;-77
2021/12/11 01:22:34;;;;;;;59.40;29.00;;;3.30;99.90;;;;;;4971062;28;20207;-78
2021/12/11 01:25:23;;;;;;;59.17;28.57;;;3.20;99.90;;;;;;4968647;28;20206;-77
2021/12/11 01:27:53;;;;;;;58.30;26.23;;;3.10;99.90;;;;;;4987344;28;20203;-78
2021/12/11 01:30:25;;;;;;;60.60;28.23;;;3.10;99.90;;;;;;4985087;28;20218;-76
2021/12/11 01:32:58;;;;;;;53.27;27.27;;;3.10;99.90;;;;;;4958870;28;20180;-77
2021/12/11 01:35:24;;;;;;;60.07;27.80;;;3.00;99.90;;;;;;4976479;28;20196;-77
2021/12/11 01:38:02;;;;;;;56.20;26.53;;;3.00;99.90;;;;;;4974183;28;20191;-78
2021/12/11 01:40:31;;;;;;;55.10;27.20;;;3.10;99.90;;;;;;4975235;28;20183;-77
2021/12/11 01:42:59;;;;;;;57.07;26.37;;;3.20;99.90;;;;;;4984078;28;20620;-78
2021/12/11 01:45:25;;;;;;;58.23;27.70;;;3.20;99.90;;;;;;4965212;28;20184;-77
2021/12/11 01:47:50;;;;;;;55.37;26.20;;;3.50;99.90;;;;;;4965619;28;20191;-78
2021/12/11 01:50:21;;;;;;;64.10;31.70;;;3.40;99.90;;;;;;4967688;28;20187;-78
2021/12/11 01:53:26;;;;;;;60.27;30.43;;;3.40;99.90;;;;;;4973557;28;20188;-78
2021/12/11 01:56:03;;;;;;;61.30;30.30;;;3.30;99.90;;;;;;4974955;28;20179;-77
2021/12/11 01:58:36;;;;;;;61.07;29.23;;;3.30;99.90;;;;;;4971060;28;20215;-78
2021/12/11 02:01:32;;;;;;;64.13;31.37;;;3.30;99.90;;;;;;4982833;28;20191;-77
2021/12/11 02:04:00;;;;;;;65.37;29.23;;;3.40;99.90;;;;;;4990833;28;20187;-78
2021/12/11 02:06:32;;;;;;;60.10;27.90;;;3.50;99.90;;;;;;4976534;28;20191;-78
2021/12/11 02:08:59;;;;;;;58.83;29.63;;;3.40;99.90;;;;;;4979603;28;20191;-78
2021/12/11 02:11:29;;;;;;;63.67;30.77;;;3.40;99.90;;;;;;4984632;28;20190;-77
2021/12/11 02:13:59;;;;;;;61.87;30.77;;;3.40;99.90;;;;;;4993092;28;20271;-77
2021/12/11 02:16:46;;;;;;;64.53;29.30;;;3.30;99.90;;;;;;4976491;28;20211;-77
2021/12/11 02:19:17;;;;;;;63.30;29.83;;;3.30;99.90;;;;;;4992753;28;20211;-77
2021/12/11 02:21:56;;;;;;;63.60;29.40;;;3.30;99.90;;;;;;4980689;28;20276;-77
2021/12/11 02:24:30;;;;;;;72.47;31.63;;;3.20;99.90;;;;;;4977863;28;20187;-78
2021/12/11 02:26:56;;;;;;;65.13;28.27;;;3.20;99.90;;;;;;4984376;28;20214;-77
2021/12/11 02:29:30;;;;;;;60.40;28.07;;;3.10;99.90;;;;;;4960249;28;20179;-78
2021/12/11 02:32:06;;;;;;;66.07;29.47;;;3.00;99.90;;;;;;4973412;28;20188;-78
2021/12/11 02:34:47;;;;;;;63.63;29.83;;;2.90;99.90;;;;;;4977694;28;20167;-78
2021/12/11 02:37:22;;;;;;;60.53;28.73;;;2.80;99.90;;;;;;4987349;28;20203;-78
2021/12/11 02:39:52;;;;;;;63.60;29.37;;;3.00;99.90;;;;;;4971268;28;20214;-78
2021/12/11 02:42:33;;;;;;;58.37;28.73;;;3.30;99.90;;;;;;4978917;28;20175;-78
2021/12/11 02:45:16;;;;;;;58.63;27.43;;;3.20;99.90;;;;;;4983075;28;20546;-77
2021/12/11 02:47:47;;;;;;;53.13;28.47;;;3.20;99.90;;;;;;4991981;28;20238;-77
2021/12/11 02:50:24;;;;;;;59.03;28.47;;;3.20;99.90;;;;;;4992288;28;20238;-77
2021/12/11 02:53:04;;;;;;;55.67;26.83;;;3.10;99.90;;;;;;4974888;28;20275;-77
2021/12/11 02:55:39;;;;;;;56.23;26.47;;;3.10;99.90;;;;;;4988890;28;20186;-77
2021/12/11 02:58:14;;;;;;;49.93;25.83;;;3.10;99.90;;;;;;4981617;28;20203;-78
2021/12/11 03:00:52;;;;;;;54.53;26.70;;;3.10;99.90;;;;;;4985592;28;20270;-77
2021/12/11 03:03:30;;;;;;;55.13;26.27;;;3.20;99.90;;;;;;4981974;28;20176;-78
2021/12/11 03:06:06;;;;;;;53.37;25.70;;;3.30;99.90;;;;;;4964417;28;20250;-77
2021/12/11 03:08:32;;;;;;;54.53;26.33;;;3.30;99.90;;;;;;4986457;28;20189;-77
2021/12/11 03:11:02;;;;;;;53.23;24.27;;;3.00;99.90;;;;;;4983699;28;20175;-78
2021/12/11 03:13:33;;;;;;;50.40;25.20;;;3.10;99.90;;;;;;4967008;28;20187;-76
2021/12/11 03:16:00;;;;;;;52.77;24.33;;;3.30;99.90;;;;;;4968470;28;20253;-77
2021/12/11 03:18:28;;;;;;;51.43;24.97;;;3.40;99.90;;;;;;4980323;28;20231;-76
2021/12/11 03:20:54;;;;;;;51.23;25.73;;;3.30;99.90;;;;;;4975251;28;20180;-76
2021/12/11 03:23:20;;;;;;;51.30;26.43;;;3.30;99.90;;;;;;4987483;28;20171;-77
2021/12/11 03:25:47;;;;;;;55.23;25.93;;;3.30;99.90;;;;;;4975075;28;20260;-77
2021/12/11 03:28:15;;;;;;;55.70;25.77;;;3.10;99.90;;;;;;4969763;28;20196;-77
2021/12/11 03:30:45;;;;;;;53.87;25.60;;;3.10;99.90;;;;;;4973546;28;20183;-77
2021/12/11 03:33:15;;;;;;;53.27;25.93;;;3.20;99.90;;;;;;4973627;28;20562;-78
2021/12/11 03:35:41;;;;;;;55.57;28.23;;;3.00;99.90;;;;;;4973217;28;21456;-77
2021/12/11 03:38:08;;;;;;;54.17;25.07;;;3.10;99.90;;;;;;4976026;28;20629;-78
2021/12/11 03:40:34;;;;;;;52.13;25.33;;;3.10;99.90;;;;;;4976502;28;20260;-78
2021/12/11 03:43:02;;;;;;;49.87;25.83;;;3.00;99.90;;;;;;4963919;28;20633;-78
2021/12/11 03:45:33;;;;;;;55.13;26.40;;;3.10;99.90;;;;;;4970048;28;20172;-77
2021/12/11 03:48:11;;;;;;;54.53;25.10;;;2.90;99.90;;;;;;4967978;28;20194;-78
2021/12/11 03:50:38;;;;;;;50.73;25.70;;;2.90;99.90;;;;;;4992449;28;20176;-77
2021/12/11 03:53:04;;;;;;;51.33;26.10;;;3.10;99.90;;;;;;4974791;28;20242;-78
2021/12/11 03:55:36;;;;;;;54.43;27.17;;;3.20;99.90;;;;;;4990901;28;20198;-77
2021/12/11 03:58:04;;;;;;;51.50;26.30;;;3.10;99.90;;;;;;4989255;28;20195;-77
2021/12/11 04:00:40;;;;;;;56.23;26.87;;;2.90;99.90;;;;;;4957572;28;20303;-77
2021/12/11 04:03:08;;;;;;;53.83;27.80;;;2.60;99.90;;;;;;4997228;28;20186;-77
2021/12/11 04:05:38;;;;;;;55.33;27.97;;;2.60;99.90;;;;;;4975138;28;20632;-78
2021/12/11 04:08:06;;;;;;;55.13;26.77;;;2.60;99.90;;;;;;4957972;28;20200;-76
2021/12/11 04:10:32;;;;;;;57.10;28.17;;;2.80;99.90;;;;;;4963261;28;20547;-77
2021/12/11 04:13:02;;;;;;;57.33;27.93;;;2.80;99.90;;;;;;4962234;28;20187;-78
2021/12/11 04:15:28;;;;;;;61.67;28.50;;;2.80;99.90;;;;;;4989535;28;20260;-78
2021/12/11 04:17:54;;;;;;;64.10;29.10;;;2.60;99.90;;;;;;4970391;28;20306;-78
2021/12/11 04:20:24;;;;;;;59.50;28.20;;;2.50;99.90;;;;;;4965526;28;20230;-77
2021/12/11 04:22:50;;;;;;;60.57;29.00;;;2.30;99.90;;;;;;4981224;28;20210;-77
2021/12/11 04:25:18;;;;;;;61.03;28.03;;;2.30;99.90;;;;;;4974422;28;20176;-77
2021/12/11 04:27:45;;;;;;;63.90;26.80;;;2.40;99.90;;;;;;4968411;28;20293;-77
2021/12/11 04:30:49;;;;;;;50.53;25.10;;;2.40;99.90;;;;;;4973778;28;20274;-77
2021/12/11 04:33:15;;;;;;;54.90;26.13;;;2.60;99.90;;;;;;4963796;28;20229;-77
2021/12/11 04:35:43;;;;;;;52.03;25.90;;;2.60;99.90;;;;;;4974012;28;20194;-77
2021/12/11 04:38:12;;;;;;;50.70;25.23;;;2.50;99.90;;;;;;4989947;28;20615;-77
2021/12/11 04:40:48;;;;;;;50.37;24.97;;;2.60;99.90;;;;;;4967817;28;20635;-78
2021/12/11 04:43:17;;;;;;;49.27;24.70;;;2.70;99.90;;;;;;4986965;28;20171;-77
2021/12/11 04:45:48;;;;;;;49.77;24.77;;;2.70;99.90;;;;;;4972497;28;20271;-78
2021/12/11 04:51:27;;;;;;;46.67;24.20;;;2.50;99.90;;;;;;4960431;28;20183;-78
2021/12/11 04:54:17;;;;;;;51.07;23.77;;;2.40;99.90;;;;;;4983440;28;20179;-79
2021/12/11 05:00:05;;;;;;;53.50;26.00;;;2.40;99.90;;;;;;4973824;28;20678;-78
2021/12/11 05:11:04;;;;;;;52.40;23.30;;;2.90;99.90;;;;;;4974638;28;20195;-76
2021/12/11 05:13:32;;;;;;;46.83;22.73;;;3.00;99.90;;;;;;4970605;28;20198;-77
2021/12/11 05:16:02;;;;;;;49.37;23.23;;;2.90;99.90;;;;;;4984016;28;20275;-77
2021/12/11 05:18:29;;;;;;;49.47;24.90;;;2.80;99.90;;;;;;4972606;28;20560;-76
2021/12/11 05:21:03;;;;;;;47.97;23.30;;;2.80;99.90;;;;;;4956732;28;20203;-77
2021/12/11 05:23:29;;;;;;;49.43;25.20;;;2.70;99.90;;;;;;4972073;28;20262;-77
2021/12/11 05:25:56;;;;;;;44.50;22.77;;;2.70;99.90;;;;;;4955049;28;20184;-76
2021/12/11 05:28:22;;;;;;;45.07;24.10;;;2.70;99.90;;;;;;4972475;28;20635;-77
2021/12/11 05:30:52;;;;;;;48.37;22.57;;;2.70;99.90;;;;;;4993378;28;20210;-77
2021/12/11 05:33:19;;;;;;;46.67;24.20;;;2.60;99.90;;;;;;4985850;28;20172;-77
2021/12/11 05:35:47;;;;;;;48.57;23.93;;;2.60;99.90;;;;;;4978907;28;20171;-78
2021/12/11 05:38:25;;;;;;;42.90;22.07;;;2.50;99.90;;;;;;4977489;28;20288;-77
2021/12/11 05:40:55;;;;;;;49.73;25.17;;;2.40;99.90;;;;;;4974395;28;20207;-77
2021/12/11 05:43:21;;;;;;;45.30;22.20;;;2.30;99.90;;;;;;4973720;28;20203;-79
2021/12/11 05:45:47;;;;;;;42.57;23.00;;;2.10;99.90;;;;;;4958841;28;20278;-78
2021/12/11 05:48:14;;;;;;;46.37;23.53;;;2.00;99.90;;;;;;4965992;28;20210;-78
2021/12/11 05:50:55;;;;;;;47.37;23.27;;;2.00;99.90;;;;;;4977188;28;20277;-78
2021/12/11 05:53:22;;;;;;;47.67;23.43;;;1.90;99.90;;;;;;4987201;28;20649;-78
2021/12/11 05:55:51;;;;;;;50.87;23.73;;;1.90;99.90;;;;;;4979689;28;20184;-77
2021/12/11 05:58:34;;;;;;;49.97;23.83;;;1.90;99.90;;;;;;4965050;28;20206;-77
2021/12/11 06:01:41;;;;;;;45.23;22.60;;;1.80;99.90;;;;;;4978883;28;20265;-77
2021/12/11 06:04:12;;;;;;;51.70;24.63;;;1.80;99.90;;;;;;4910279;29;20831;-77
2021/12/11 06:06:39;;;;;;;53.97;25.17;;;1.70;99.90;;;;;;4930955;29;20670;-77
2021/12/11 06:09:07;;;;;;;49.53;25.67;;;1.70;99.90;;;;;;4969483;28;20222;-78
2021/12/11 06:11:49;;;;;;;52.17;23.97;;;1.70;99.90;;;;;;4992225;28;20194;-78
2021/12/11 06:14:17;;;;;;;47.20;23.10;;;1.80;99.90;;;;;;4974939;28;20221;-78
2021/12/11 06:16:44;;;;;;;48.00;24.47;;;1.90;99.90;;;;;;4960312;28;20210;-77
2021/12/11 06:19:10;;;;;;;47.87;23.40;;;2.00;99.90;;;;;;4962030;28;20281;-78
2021/12/11 06:21:36;;;;;;;45.17;22.27;;;2.00;99.90;;;;;;4992722;28;20493;-78
2021/12/11 06:24:03;;;;;;;47.10;23.27;;;2.00;99.90;;;;;;4979834;28;20183;-79
2021/12/11 06:26:29;;;;;;;44.50;22.33;;;1.90;99.90;;;;;;4985064;28;20955;-77
2021/12/11 06:28:55;;;;;;;41.97;22.20;;;1.90;99.90;;;;;;4974894;28;20540;-78
2021/12/11 06:31:21;;;;;;;42.00;21.80;;;2.00;99.90;;;;;;4960161;28;20631;-78
2021/12/11 06:33:49;;;;;;;45.23;22.67;;;2.00;99.90;;;;;;4973694;28;20187;-77
2021/12/11 06:36:17;;;;;;;41.87;22.67;;;1.90;99.90;;;;;;4964982;28;20204;-77
2021/12/11 06:38:45;;;;;;;46.50;22.40;;;1.90;99.90;;;;;;4958373;28;20231;-77
2021/12/11 06:41:39;;;;;;;43.17;22.03;;;1.90;99.90;;;;;;4965729;28;20552;-76
2021/12/11 06:44:06;;;;;;;41.40;21.40;;;1.90;99.90;;;;;;4975329;28;20250;-77
2021/12/11 06:46:33;;;;;;;39.13;21.50;;;1.90;99.90;;;;;;4974967;28;20222;-77
2021/12/11 06:48:59;;;;;;;40.47;21.10;;;1.80;99.90;;;;;;4984107;28;20183;-78
2021/12/11 06:51:26;;;;;;;39.23;20.17;;;1.80;99.90;;;;;;4983552;28;20207;-77
2021/12/11 06:53:58;;;;;;;43.00;20.70;;;1.80;99.90;;;;;;4959181;28;20194;-78
2021/12/11 06:56:24;;;;;;;42.00;20.40;;;1.90;99.90;;;;;;4965734;28;20206;-78
2021/12/11 06:58:52;;;;;;;39.43;20.27;;;1.80;99.90;;;;;;4976134;28;20643;-77
2021/12/11 07:01:19;;;;;;;41.33;20.83;;;1.70;99.90;;;;;;4976825;28;20183;-77
2021/12/11 07:03:46;;;;;;;41.17;20.17;;;1.70;99.90;;;;;;4973019;28;20175;-78
2021/12/11 07:06:14;;;;;;;41.87;19.60;;;1.80;99.90;;;;;;4991990;28;20219;-78
2021/12/11 07:08:40;;;;;;;36.70;19.30;;;1.80;99.90;;;;;;4971147;28;20246;-76
2021/12/11 07:11:08;;;;;;;40.27;19.67;;;1.70;99.90;;;;;;4967124;28;20179;-77
2021/12/11 07:13:34;;;;;;;36.17;18.73;;;1.60;99.90;;;;;;4959839;28;20203;-77
2021/12/11 07:16:01;;;;;;;39.10;20.43;;;1.60;99.90;;;;;;4988811;28;20207;-77
2021/12/11 07:18:27;;;;;;;39.87;19.43;;;1.70;99.90;;;;;;4959108;28;20199;-78
2021/12/11 07:20:54;;;;;;;38.33;20.03;;;1.70;99.90;;;;;;4975851;28;20194;-77
2021/12/11 07:23:20;;;;;;;37.77;19.40;;;1.80;99.90;;;;;;4959078;28;20240;-78
2021/12/11 07:25:55;;;;;;;41.17;20.20;;;1.80;99.90;;;;;;4990985;28;20191;-77
2021/12/11 07:28:25;;;;;;;35.03;18.67;;;1.70;99.90;;;;;;4975155;28;20182;-78
2021/12/11 07:30:56;;;;;;;34.70;18.20;;;1.80;99.90;;;;;;4980760;28;20211;-78
2021/12/11 07:33:23;;;;;;;34.57;18.67;;;1.70;99.90;;;;;;4979064;28;20546;-77
2021/12/11 07:35:50;;;;;;;34.83;19.23;;;1.70;99.90;;;;;;4986543;28;20286;-78
2021/12/11 07:38:16;;;;;;;37.07;19.33;;;1.70;99.90;;;;;;4964464;28;20587;-79
2021/12/11 07:40:52;;;;;;;37.70;20.00;;;1.60;99.90;;;;;;4980783;28;20179;-79
2021/12/11 07:43:19;;;;;;;40.57;20.20;;;1.70;99.90;;;;;;4979215;28;20175;-79
2021/12/11 07:45:46;;;;;;;34.13;18.90;;;1.60;99.90;;;;;;4976377;28;20177;-79
2021/12/11 07:48:12;;;;;;;42.67;20.50;;;1.70;99.90;;;;;;4981521;28;20574;-79
2021/12/11 07:50:39;;;;;;;36.83;19.10;;;1.70;99.90;;;;;;4981861;28;20183;-79
2021/12/11 07:53:05;;;;;;;34.83;17.93;;;1.70;99.90;;;;;;4981759;28;20562;-79
2021/12/11 07:55:32;;;;;;;34.33;18.20;;;1.80;99.90;;;;;;4980450;28;20179;-79
2021/12/11 07:58:00;;;;;;;35.43;19.23;;;1.80;99.90;;;;;;4982549;28;20199;-78
2021/12/11 08:00:27;;;;;;;37.33;18.03;;;1.90;99.90;;;;;;4958713;28;20230;-78
2021/12/11 08:02:54;;;;;;;31.87;18.23;;;2.00;99.90;;;;;;4963574;28;20190;-79
2021/12/11 08:05:26;;;;;;;40.30;18.90;;;2.20;99.90;;;;;;4982754;28;20179;-79
2021/12/11 08:07:53;;;;;;;35.70;18.57;;;2.20;99.90;;;;;;4984368;28;20546;-79
2021/12/11 08:10:23;;;;;;;38.13;19.83;;;2.30;99.90;;;;;;4984751;28;20278;-79
2021/12/11 08:12:54;;;;;;;34.33;18.47;;;2.30;99.90;;;;;;4987320;28;20806;-79
2021/12/11 08:15:20;;;;;;;34.73;18.00;;;2.30;99.90;;;;;;4988709;28;20176;-78
2021/12/11 08:17:52;;;;;;;35.13;17.57;;;2.40;99.90;;;;;;4963817;28;20217;-78
2021/12/11 08:20:21;;;;;;;32.17;17.70;;;2.40;99.90;;;;;;4986299;28;20229;-79
2021/12/11 08:22:46;;;;;;;35.87;18.77;;;2.30;99.90;;;;;;4990106;28;20183;-77
2021/12/11 08:25:12;;;;;;;32.80;19.17;;;2.40;99.90;;;;;;4980191;28;20178;-78
2021/12/11 08:27:38;;;;;;;32.17;17.43;;;2.50;99.90;;;;;;4994879;28;20207;-78
2021/12/11 08:30:06;;;;;;;32.70;17.87;;;2.60;99.90;;;;;;4980061;28;20271;-79
2021/12/11 08:32:32;;;;;;;37.97;18.37;;;2.60;99.90;;;;;;4994855;28;20570;-78
2021/12/11 08:34:58;;;;;;;38.53;19.63;;;2.50;99.90;;;;;;4962757;28;20193;-79
2021/12/11 08:37:24;;;;;;;36.00;19.10;;;2.40;99.90;;;;;;4962849;28;20199;-78
2021/12/11 08:39:51;;;;;;;33.17;17.70;;;2.40;99.90;;;;;;4982394;28;20230;-78
2021/12/11 08:42:21;;;;;;;33.93;18.63;;;2.50;99.90;;;;;;4971522;28;20186;-78
2021/12/11 08:44:58;;;;;;;32.07;18.53;;;2.40;99.90;;;;;;4977768;28;20180;-77
2021/12/11 08:47:26;;;;;;;34.93;19.40;;;2.40;99.90;;;;;;4968709;28;20199;-79
2021/12/11 08:49:54;;;;;;;35.27;17.83;;;2.40;99.90;;;;;;4981019;28;20171;-78
2021/12/11 08:52:27;;;;;;;35.83;18.13;;;2.40;99.90;;;;;;4972684;28;20650;-78
2021/12/11 08:54:54;;;;;;;31.87;18.30;;;2.40;99.90;;;;;;4962757;28;20548;-77
2021/12/11 08:57:27;;;;;;;39.60;19.50;;;2.40;99.90;;;;;;4979366;28;20199;-78
2021/12/11 08:59:57;;;;;;;35.03;19.67;;;2.40;99.90;;;;;;4991007;28;20265;-79
2021/12/11 09:02:37;;;;;;;34.23;18.23;;;2.50;99.90;;;;;;4977274;28;20184;-80
2021/12/11 09:05:11;;;;;;;35.53;18.20;;;2.50;99.90;;;;;;4989966;28;20172;-79
2021/12/11 09:07:46;;;;;;;35.47;18.37;;;2.50;99.90;;;;;;4973627;28;20200;-79
2021/12/11 09:10:23;;;;;;;37.70;19.50;;;2.40;99.90;;;;;;4974030;28;20188;-79
2021/12/11 09:13:04;;;;;;;34.97;18.43;;;2.50;99.90;;;;;;4964667;28;20229;-80
2021/12/11 09:15:37;;;;;;;37.43;18.33;;;2.60;99.90;;;;;;4975906;28;20191;-79
2021/12/11 09:18:14;;;;;;;32.37;18.50;;;2.60;99.90;;;;;;4997690;28;20219;-79
2021/12/11 09:20:48;;;;;;;34.80;17.60;;;2.70;99.90;;;;;;4983018;28;20206;-79
2021/12/11 09:23:24;;;;;;;30.83;17.33;;;2.60;99.90;;;;;;4989194;28;20207;-77
2021/12/11 09:26:20;;;;;;;32.07;17.13;;;2.70;99.90;;;;;;4974026;28;20713;-78
2021/12/11 09:28:52;;;;;;;33.73;17.77;;;2.80;99.90;;;;;;4973320;28;20172;-77
2021/12/11 09:31:28;;;;;;;31.07;17.63;;;2.80;99.90;;;;;;4980897;28;20187;-77
2021/12/11 09:34:01;;;;;;;30.37;18.03;;;2.70;99.90;;;;;;4983632;28;20183;-78
2021/12/11 09:36:36;;;;;;;30.37;17.03;;;2.80;99.90;;;;;;5010157;28;20183;-78
2021/12/11 09:39:13;;;;;;;30.47;17.93;;;2.90;99.90;;;;;;4984237;28;20191;-76
2021/12/11 09:41:39;;;;;;;33.60;18.17;;;2.90;99.90;;;;;;4984982;28;20255;-77
2021/12/11 09:44:23;;;;;;;31.23;17.53;;;2.90;99.90;;;;;;4985054;28;20199;-77
2021/12/11 09:47:00;;;;;;;31.60;18.03;;;2.90;99.90;;;;;;4987735;28;20258;-77
2021/12/11 09:49:29;;;;;;;33.23;18.63;;;3.00;99.90;;;;;;5006036;28;20183;-78
2021/12/11 09:52:04;;;;;;;32.13;18.77;;;3.00;99.90;;;;;;4999182;28;20172;-77
2021/12/11 09:54:34;;;;;;;30.13;17.47;;;3.10;99.90;;;;;;4993486;28;20159;-77
2021/12/11 09:57:08;;;;;;;33.60;17.80;;;3.10;99.90;;;;;;4992539;28;20207;-77
2021/12/11 09:59:37;;;;;;;30.77;17.53;;;3.10;99.90;;;;;;4985124;28;20222;-77
2021/12/11 10:02:07;;;;;;;30.00;17.13;;;3.10;99.90;;;;;;4992002;28;20179;-78
2021/12/11 10:04:47;;;;;;;31.67;18.50;;;3.20;99.90;;;;;;4988107;28;20184;-78
2021/12/11 10:07:29;;;;;;;32.43;18.13;;;3.30;99.90;;;;;;4976486;28;20203;-78
2021/12/11 10:10:01;;;;;;;31.67;17.67;;;3.10;99.90;;;;;;4997984;28;20187;-79
2021/12/11 10:12:32;;;;;;;31.97;16.60;;;3.00;99.90;;;;;;4974848;28;20207;-79
2021/12/11 10:15:18;;;;;;;32.90;17.67;;;3.00;99.90;;;;;;5004675;28;20195;-79
2021/12/11 10:17:52;;;;;;;31.87;17.57;;;3.00;99.90;;;;;;4991055;28;20283;-79
2021/12/11 10:20:25;;;;;;;27.17;16.70;;;3.10;99.90;;;;;;4988992;28;20208;-79
2021/12/11 10:22:53;;;;;;;30.00;16.93;;;2.90;99.90;;;;;;4985533;28;20268;-79
2021/12/11 10:25:22;;;;;;;35.13;17.97;;;3.00;99.90;;;;;;4966031;28;20184;-79
2021/12/11 10:27:48;;;;;;;29.87;17.93;;;3.10;99.90;;;;;;4981970;28;20210;-79
2021/12/11 10:30:19;;;;;;;30.90;17.47;;;3.10;99.90;;;;;;4982401;28;20171;-78
2021/12/11 10:32:45;;;;;;;31.20;17.63;;;3.20;99.90;;;;;;4983148;28;20183;-77
2021/12/11 10:35:15;;;;;;;30.47;17.77;;;3.10;99.90;;;;;;4999040;28;20214;-79
2021/12/11 10:37:42;;;;;;;27.83;16.30;;;3.20;99.90;;;;;;4982544;28;20207;-79
2021/12/11 10:40:18;;;;;;;29.47;16.43;;;3.30;99.90;;;;;;4966188;28;20195;-79
2021/12/11 10:42:49;;;;;;;29.20;16.17;;;3.20;99.90;;;;;;4998289;28;20665;-79
2021/12/11 10:45:16;;;;;;;27.53;16.13;;;3.40;99.90;;;;;;4984360;28;20188;-79
2021/12/11 10:47:49;;;;;;;28.13;16.43;;;3.40;99.90;;;;;;4975062;28;20198;-79
2021/12/11 10:50:26;;;;;;;27.60;16.53;;;3.30;99.90;;;;;;4984896;28;20673;-79
2021/12/11 10:52:52;;;;;;;25.87;15.83;;;3.30;99.90;;;;;;4997096;28;20183;-78
2021/12/11 10:55:24;;;;;;;26.83;17.03;;;3.30;99.90;;;;;;4965034;28;20179;-78
2021/12/11 10:57:56;;;;;;;27.90;15.50;;;3.30;99.90;;;;;;4994835;28;20209;-79
2021/12/11 11:00:41;;;;;;;24.23;15.43;;;3.30;99.90;;;;;;4996081;28;20682;-78
2021/12/11 11:03:13;;;;;;;29.20;15.67;;;3.40;99.90;;;;;;4997588;28;20183;-78
2021/12/11 11:05:39;;;;;;;27.83;15.37;;;3.30;99.90;;;;;;5007589;28;20191;-79
2021/12/11 11:08:06;;;;;;;26.53;15.57;;;3.30;99.90;;;;;;4968918;28;20660;-79
2021/12/11 11:10:36;;;;;;;25.57;15.90;;;3.40;99.90;;;;;;4995248;28;20203;-78
2021/12/11 11:13:06;;;;;;;25.77;15.87;;;3.50;99.90;;;;;;4996898;28;20176;-78
2021/12/11 11:15:32;;;;;;;27.17;16.73;;;3.50;99.90;;;;;;4995863;28;20187;-78
2021/12/11 11:17:58;;;;;;;26.60;15.83;;;3.50;99.90;;;;;;5000557;28;20219;-78
2021/12/11 11:20:33;;;;;;;29.03;16.53;;;3.50;99.90;;;;;;4983181;28;20238;-79
2021/12/11 11:23:00;;;;;;;27.63;15.47;;;3.50;99.90;;;;;;4981523;28;20217;-79
2021/12/11 11:25:29;;;;;;;28.17;15.57;;;3.70;99.90;;;;;;4966531;28;20215;-78
2021/12/11 11:27:59;;;;;;;25.80;15.17;;;3.70;99.90;;;;;;4981881;28;20199;-78
2021/12/11 11:30:34;;;;;;;22.23;15.40;;;3.80;99.90;;;;;;4971353;28;20179;-77
2021/12/11 11:33:02;;;;;;;29.20;15.70;;;4.00;99.90;;;;;;4979865;28;20194;-78
2021/12/11 11:35:31;;;;;;;23.03;14.07;;;4.20;99.90;;;;;;4982615;28;20563;-79
2021/12/11 11:37:59;;;;;;;22.47;15.30;;;4.20;99.90;;;;;;4965135;28;20205;-79
2021/12/11 11:40:33;;;;;;;23.30;15.00;;;4.30;99.90;;;;;;4981578;28;20209;-79
2021/12/11 11:42:59;;;;;;;23.33;15.03;;;4.30;99.90;;;;;;4979568;28;20175;-79
2021/12/11 11:45:26;;;;;;;23.37;15.43;;;4.40;99.90;;;;;;5014207;28;20187;-79
2021/12/11 11:47:54;;;;;;;24.47;14.77;;;4.60;99.90;;;;;;4985712;28;20199;-78
2021/12/11 11:50:27;;;;;;;20.63;13.97;;;4.80;99.90;;;;;;4982615;28;20180;-78
2021/12/11 11:52:53;;;;;;;23.73;14.10;;;4.70;99.90;;;;;;4979482;28;20180;-77
2021/12/11 11:55:25;;;;;;;22.87;14.30;;;4.80;99.90;;;;;;4968393;28;20273;-78
2021/12/11 11:57:54;;;;;;;20.47;13.50;;;4.80;99.90;;;;;;4964000;28;20218;-78
2021/12/11 12:00:26;;;;;;;20.77;13.87;;;4.70;99.90;;;;;;4963234;28;20210;-79
2021/12/11 12:02:52;;;;;;;25.00;14.43;;;4.70;99.90;;;;;;4988503;28;20289;-78
2021/12/11 12:05:20;;;;;;;21.77;13.03;;;4.60;99.90;;;;;;4964094;28;20179;-79
2021/12/11 12:07:46;;;;;;;23.83;14.07;;;4.60;99.90;;;;;;4967854;28;20223;-78
2021/12/11 12:10:19;;;;;;;23.40;13.80;;;4.70;99.90;;;;;;4982248;28;20183;-79
2021/12/11 12:12:45;;;;;;;29.70;14.33;;;4.60;99.90;;;;;;4971542;28;20178;-78
2021/12/11 12:15:17;;;;;;;20.83;13.30;;;4.70;99.90;;;;;;4986387;28;20279;-77
2021/12/11 12:17:43;;;;;;;24.13;14.00;;;4.50;99.90;;;;;;4966668;28;20539;-78
2021/12/11 12:20:12;;;;;;;20.60;13.50;;;4.50;99.90;;;;;;4981950;28;20342;-78
2021/12/11 12:22:40;;;;;;;22.37;13.70;;;4.50;99.90;;;;;;4982234;28;20209;-78
2021/12/11 12:25:08;;;;;;;21.10;13.90;;;4.50;99.90;;;;;;4996223;28;20288;-78
2021/12/11 12:27:36;;;;;;;20.40;12.77;;;4.40;99.90;;;;;;5000857;28;20687;-78
2021/12/11 12:30:11;;;;;;;22.47;13.27;;;4.30;99.90;;;;;;4972502;28;20186;-78
2021/12/11 12:32:36;;;;;;;23.73;13.83;;;4.30;99.90;;;;;;4996270;28;20225;-78
2021/12/11 12:35:09;;;;;;;19.13;12.93;;;4.30;99.90;;;;;;4994940;28;20191;-78
2021/12/11 12:37:35;;;;;;;23.50;13.93;;;4.20;99.90;;;;;;4979207;28;20226;-79
2021/12/11 12:40:04;;;;;;;19.83;12.80;;;4.20;99.90;;;;;;4981274;28;20209;-78
2021/12/11 12:42:37;;;;;;;23.20;13.30;;;4.20;99.90;;;;;;4963231;28;20175;-78
2021/12/11 12:45:15;;;;;;;19.07;12.50;;;4.20;99.90;;;;;;4979109;28;20179;-78
2021/12/11 12:47:52;;;;;;;19.60;12.23;;;4.10;99.90;;;;;;4979108;28;20199;-78
2021/12/11 12:50:32;;;;;;;19.37;11.67;;;4.20;99.90;;;;;;4962864;28;20175;-78
2021/12/11 12:52:59;;;;;;;20.00;12.47;;;4.20;99.90;;;;;;4985258;28;20180;-79
2021/12/11 12:55:30;;;;;;;20.40;12.87;;;4.20;99.90;;;;;;4984665;28;20183;-79
2021/12/11 12:57:59;;;;;;;18.23;11.20;;;4.20;99.90;;;;;;4979153;28;20218;-77
2021/12/11 13:00:43;;;;;;;19.20;11.77;;;4.20;99.90;;;;;;4980697;28;20190;-78
2021/12/11 13:03:16;;;;;;;19.53;11.13;;;4.20;99.90;;;;;;4981210;28;20183;-78
2021/12/11 13:05:57;;;;;;;21.37;12.13;;;4.20;99.90;;;;;;4973989;28;20192;-78
2021/12/11 13:08:37;;;;;;;17.80;10.43;;;4.20;99.90;;;;;;4980586;28;20197;-78
2021/12/11 13:11:11;;;;;;;18.97;10.80;;;4.40;99.90;;;;;;4975482;28;20186;-78
2021/12/11 13:13:38;;;;;;;18.40;11.40;;;4.30;99.90;;;;;;4989896;28;20643;-79